Applegate, Oregon
Current Conditions -  °F | °C
As of 12:53 AM on Sunday 26 Oct 2014 (Local Time) from KMFR Reporting Station
Light Rain Light Rain  
Wind Chill: 10°   Ceiling: 6000
Heat Index: 10°   Visibility: 10mi
Dew Point:   Wind: 5mph
Humidity: 74%   Direction: 230°SW
Pressure: 30.09"   Gusts: NA
Location:  42.1499°N, 123.043°W
Report Text: KMFR 260753Z AUTO 23004KT 10SM -RA BKN060 OVC070 10/06 A3009 RMK AO2 RAB24 SLP188 P0000 T01000056 402000089
Loading
Personal Weather Stations






























Interactive Weather Map
Tropical Storm Tracking
New forecast layout! Learn more

10-Day Weather Forecast

Advertisements
Track Severe Weather on mobile